createdAt,value
2018-04-27T00:01:37.407Z,99.90
2018-04-27T00:04:06.934Z,99.90
2018-04-27T00:06:37.233Z,99.90
2018-04-27T00:09:07.146Z,99.90
2018-04-27T00:11:36.647Z,99.90
2018-04-27T00:14:06.166Z,99.90
2018-04-27T00:16:35.391Z,99.90
2018-04-27T00:19:06.011Z,99.90
2018-04-27T00:21:35.494Z,99.90
2018-04-27T00:24:05.411Z,99.90
2018-04-27T00:26:34.946Z,99.90
2018-04-27T00:29:04.178Z,99.90
2018-04-27T00:31:34.136Z,99.90
2018-04-27T00:34:03.362Z,99.90
2018-04-27T00:36:32.584Z,99.90
2018-04-27T00:39:02.238Z,99.90
2018-04-27T00:41:31.579Z,99.90
2018-04-27T00:44:01.769Z,99.90
2018-04-27T00:46:31.381Z,99.90
2018-04-27T00:49:00.914Z,99.90
2018-04-27T00:51:31.616Z,99.90
2018-04-27T00:54:01.127Z,99.90
2018-04-27T00:56:30.343Z,99.90
2018-04-27T00:59:00.130Z,99.90
2018-04-27T01:01:29.358Z,99.90
2018-04-27T01:03:58.770Z,99.90
2018-04-27T01:06:29.058Z,99.90
2018-04-27T01:08:58.314Z,99.90
2018-04-27T01:11:27.814Z,99.90
2018-04-27T01:13:58.190Z,99.90
2018-04-27T01:16:27.446Z,99.90
2018-04-27T01:18:56.991Z,99.90
2018-04-27T01:21:26.217Z,99.90
2018-04-27T01:23:55.425Z,99.90
2018-04-27T01:26:26.347Z,99.90
2018-04-27T01:28:55.767Z,99.90
2018-04-27T01:31:24.978Z,99.90
2018-04-27T01:33:54.849Z,99.90
2018-04-27T01:36:24.794Z,99.90
2018-04-27T01:38:55.910Z,99.90
2018-04-27T01:41:26.273Z,99.90
2018-04-27T01:43:55.947Z,99.90
2018-04-27T01:46:25.462Z,99.90
2018-04-27T01:48:54.677Z,99.90
2018-04-27T01:51:24.881Z,99.90
2018-04-27T01:53:54.598Z,99.90
2018-04-27T01:56:23.831Z,99.90
2018-04-27T01:58:53.574Z,99.90
2018-04-27T02:01:24.018Z,99.90
2018-04-27T02:03:53.629Z,99.90
2018-04-27T02:06:23.146Z,99.90
2018-04-27T02:08:52.360Z,99.90
2018-04-27T02:11:22.969Z,99.90
2018-04-27T02:13:52.188Z,99.90
2018-04-27T02:16:21.406Z,99.90
2018-04-27T02:18:51.074Z,99.90
2018-04-27T02:21:20.294Z,99.90
2018-04-27T02:23:50.094Z,99.90
2018-04-27T02:26:19.311Z,99.90
2018-04-27T02:28:48.558Z,99.90
2018-04-27T02:31:18.228Z,99.90
2018-04-27T02:33:47.438Z,99.90
2018-04-27T02:36:16.660Z,99.90
2018-04-27T02:38:46.515Z,99.90
2018-04-27T02:41:15.728Z,99.90
2018-04-27T02:43:45.241Z,99.90
2018-04-27T02:46:14.799Z,99.90
2018-04-27T02:48:45.771Z,99.90
2018-04-27T02:51:15.669Z,99.90
2018-04-27T02:53:45.410Z,99.90
2018-04-27T02:56:14.889Z,99.90
2018-04-27T02:58:44.109Z,99.90
2018-04-27T03:01:13.694Z,99.90
2018-04-27T03:03:43.899Z,99.90
2018-04-27T03:06:13.942Z,99.90
2018-04-27T03:08:43.445Z,99.90
2018-04-27T03:11:12.873Z,99.90
2018-04-27T03:13:42.863Z,99.90
2018-04-27T03:16:12.260Z,99.90
2018-04-27T03:18:41.880Z,99.90
2018-04-27T03:21:11.994Z,99.90
2018-04-27T03:23:41.488Z,99.90
2018-04-27T03:26:11.827Z,99.90
2018-04-27T03:28:41.336Z,99.90
2018-04-27T03:31:11.856Z,99.90
2018-04-27T03:33:41.369Z,99.90
2018-04-27T03:36:10.587Z,99.90
2018-04-27T03:38:40.183Z,99.90
2018-04-27T03:41:09.658Z,99.90
2018-04-27T03:43:38.881Z,99.90
2018-04-27T03:46:09.919Z,99.90
2018-04-27T03:48:39.170Z,99.90
2018-04-27T03:51:09.750Z,99.90
2018-04-27T03:53:39.249Z,99.90
2018-04-27T03:56:08.471Z,99.90
2018-04-27T03:58:38.477Z,99.90
2018-04-27T04:01:26.291Z,99.90
2018-04-27T04:04:13.598Z,99.90
2018-04-27T04:06:42.822Z,99.90
2018-04-27T04:09:12.038Z,99.90
2018-04-27T04:11:41.575Z,99.90
2018-04-27T04:14:11.226Z,99.90
2018-04-27T04:16:41.478Z,99.90
2018-04-27T04:19:10.974Z,99.90
2018-04-27T04:21:40.199Z,99.90
2018-04-27T04:24:09.780Z,99.90
2018-04-27T04:26:39.597Z,99.90
2018-04-27T04:29:10.017Z,99.90
2018-04-27T04:31:39.529Z,99.90
2018-04-27T04:34:08.775Z,99.90
2018-04-27T04:36:38.346Z,99.90
2018-04-27T04:39:07.886Z,99.90
2018-04-27T04:41:37.194Z,99.90
2018-04-27T04:44:07.770Z,99.90
2018-04-27T04:46:37.708Z,99.90
2018-04-27T04:49:07.199Z,99.90
2018-04-27T04:51:36.410Z,99.90
2018-04-27T04:54:05.625Z,99.90
2018-04-27T04:56:35.915Z,99.90
2018-04-27T04:59:05.127Z,99.90
2018-04-27T05:01:34.341Z,99.90
2018-04-27T05:04:05.458Z,99.90
2018-04-27T05:06:34.674Z,99.90
2018-04-27T05:09:04.978Z,99.90
2018-04-27T05:11:34.485Z,99.90
2018-04-27T05:14:03.708Z,99.90
2018-04-27T05:16:35.135Z,99.90
2018-04-27T05:19:06.289Z,99.90
2018-04-27T05:21:35.783Z,99.90
2018-04-27T05:24:05.239Z,99.90
2018-04-27T05:26:34.699Z,99.90
2018-04-27T05:29:04.718Z,97.90
2018-04-27T05:31:33.947Z,96.30
2018-04-27T05:34:03.430Z,94.60
2018-04-27T05:36:33.161Z,91.80
2018-04-27T05:39:02.412Z,90.80
2018-04-27T05:41:32.033Z,90.90
2018-04-27T05:44:01.529Z,91.30
2018-04-27T05:46:31.262Z,90.50
2018-04-27T05:49:00.601Z,91.30
2018-04-27T05:51:29.737Z,92.20
2018-04-27T05:53:59.237Z,92.20
2018-04-27T05:56:28.978Z,93.00
2018-04-27T05:58:58.210Z,90.80
2018-04-27T06:01:27.871Z,89.10
2018-04-27T06:04:13.665Z,83.10
2018-04-27T06:06:44.708Z,87.60
2018-04-27T06:09:14.351Z,87.70
2018-04-27T06:11:44.303Z,89.00
2018-04-27T06:14:13.557Z,89.00
2018-04-27T06:16:43.121Z,87.90
2018-04-27T06:19:12.775Z,86.50
2018-04-27T06:21:42.135Z,86.20
2018-04-27T06:24:11.381Z,87.30
2018-04-27T06:26:41.046Z,86.00
2018-04-27T06:29:11.098Z,84.50
2018-04-27T06:31:40.735Z,81.30
2018-04-27T06:34:10.811Z,79.50
2018-04-27T06:36:40.314Z,77.70
2018-04-27T06:39:09.787Z,79.50
2018-04-27T06:41:39.174Z,79.80
2018-04-27T06:44:09.292Z,81.70
2018-04-27T06:46:39.253Z,82.80
2018-04-27T06:49:08.486Z,82.80
2018-04-27T06:51:38.617Z,81.10
2018-04-27T06:54:08.023Z,80.30
2018-04-27T06:56:37.246Z,75.70
2018-04-27T06:59:06.813Z,76.60
2018-04-27T07:01:35.992Z,73.90
2018-04-27T07:04:05.489Z,74.10
2018-04-27T07:06:34.930Z,68.00
2018-04-27T07:09:04.165Z,66.40
2018-04-27T07:11:33.668Z,67.40
2018-04-27T07:14:03.002Z,69.20
2018-04-27T07:16:33.634Z,65.30
2018-04-27T07:19:03.958Z,63.50
2018-04-27T07:21:33.479Z,65.60
2018-04-27T07:24:03.785Z,66.60
2018-04-27T07:26:33.302Z,66.50
2018-04-27T07:29:03.014Z,65.60
2018-04-27T07:31:32.238Z,66.10
2018-04-27T07:34:01.816Z,70.60
2018-04-27T07:36:31.119Z,73.40
2018-04-27T07:39:00.629Z,77.40
2018-04-27T07:41:29.869Z,76.50
2018-04-27T07:43:59.103Z,76.30
2018-04-27T07:46:28.854Z,76.00
2018-04-27T07:48:58.062Z,77.00
2018-04-27T07:51:27.302Z,77.10
2018-04-27T07:53:56.831Z,79.20
2018-04-27T07:56:26.071Z,78.30
2018-04-27T07:58:55.313Z,81.40
2018-04-27T08:01:24.934Z,86.70
2018-04-27T08:03:54.170Z,88.30
2018-04-27T08:06:24.186Z,89.90
2018-04-27T08:08:54.018Z,91.00
2018-04-27T08:11:23.664Z,90.80
2018-04-27T08:13:53.290Z,91.20
2018-04-27T08:16:22.532Z,91.90
2018-04-27T08:18:52.385Z,92.50
2018-04-27T08:21:22.427Z,91.90
2018-04-27T08:23:51.650Z,92.60
2018-04-27T08:26:29.639Z,93.10
2018-04-27T08:29:01.366Z,92.40
2018-04-27T08:31:30.892Z,92.40
2018-04-27T08:34:00.121Z,92.90
2018-04-27T08:36:29.866Z,92.70
2018-04-27T08:38:59.425Z,92.60
2018-04-27T08:41:30.138Z,92.00
2018-04-27T08:44:00.264Z,91.90
2018-04-27T08:46:30.345Z,91.70
2018-04-27T08:48:59.578Z,91.80
2018-04-27T08:51:29.196Z,91.70
2018-04-27T08:53:58.426Z,91.40
2018-04-27T08:56:27.654Z,91.40
2018-04-27T08:58:57.298Z,91.30
2018-04-27T09:01:27.322Z,90.00
2018-04-27T09:03:56.559Z,90.10
2018-04-27T09:06:26.297Z,90.40
2018-04-27T09:08:55.449Z,88.90
2018-04-27T09:11:24.821Z,88.30
2018-04-27T09:13:54.353Z,88.30
2018-04-27T09:16:24.380Z,86.50
2018-04-27T09:18:53.590Z,86.50
2018-04-27T09:21:23.474Z,85.60
2018-04-27T09:23:52.711Z,84.80
2018-04-27T09:26:22.658Z,85.00
2018-04-27T09:28:52.605Z,84.80
2018-04-27T09:31:22.108Z,86.10
2018-04-27T09:33:51.336Z,86.90
2018-04-27T09:36:21.522Z,86.90
2018-04-27T09:38:50.756Z,85.40
2018-04-27T09:41:19.999Z,85.90
2018-04-27T09:43:49.654Z,83.20
2018-04-27T09:46:18.869Z,81.10
2018-04-27T09:48:49.341Z,79.40
2018-04-27T09:51:18.971Z,74.90
2018-04-27T09:53:49.702Z,76.20
2018-04-27T09:56:19.554Z,70.80
2018-04-27T09:58:48.781Z,73.10
2018-04-27T10:01:18.414Z,76.30
2018-04-27T10:03:47.651Z,79.20
2018-04-27T10:06:17.357Z,77.30
2018-04-27T10:08:46.937Z,77.70
2018-04-27T10:11:16.368Z,75.00
2018-04-27T10:13:45.558Z,75.90
2018-04-27T10:16:16.071Z,67.60
2018-04-27T10:18:45.805Z,67.60
2018-04-27T10:21:16.417Z,66.90
2018-04-27T10:23:46.111Z,66.80
2018-04-27T10:26:22.903Z,66.70
2018-04-27T10:28:53.301Z,66.70
2018-04-27T10:31:22.933Z,70.00
2018-04-27T10:33:53.665Z,70.40
2018-04-27T10:36:23.178Z,71.50
2018-04-27T10:38:52.629Z,69.00
2018-04-27T10:41:23.413Z,64.90
2018-04-27T10:43:52.917Z,65.00
2018-04-27T10:46:22.154Z,68.30
2018-04-27T10:48:51.751Z,66.40
2018-04-27T10:51:21.032Z,63.60
2018-04-27T10:53:50.259Z,62.80
2018-04-27T10:56:19.826Z,59.90
2018-04-27T10:58:49.063Z,60.80
2018-04-27T11:01:18.286Z,59.90
2018-04-27T11:03:47.782Z,56.10
2018-04-27T11:06:17.006Z,58.60
2018-04-27T11:08:46.370Z,56.00
2018-04-27T11:11:16.254Z,56.40
2018-04-27T11:13:45.531Z,57.80
2018-04-27T11:16:14.783Z,57.40
2018-04-27T11:18:44.571Z,58.90
2018-04-27T11:21:13.897Z,60.80
2018-04-27T11:23:43.906Z,56.90
2018-04-27T11:26:13.877Z,56.90
2018-04-27T11:28:43.120Z,56.10
2018-04-27T11:31:12.337Z,54.00
2018-04-27T11:33:42.219Z,58.70
2018-04-27T11:36:11.454Z,55.20
2018-04-27T11:38:40.713Z,52.70
2018-04-27T11:41:10.328Z,54.60
2018-04-27T11:43:39.564Z,52.10
2018-04-27T11:46:08.798Z,53.20
2018-04-27T11:48:38.439Z,55.10
2018-04-27T11:51:08.511Z,54.70
2018-04-27T11:53:37.772Z,55.40
2018-04-27T11:56:07.565Z,56.30
2018-04-27T11:58:36.807Z,54.30
2018-04-27T12:01:06.045Z,54.60
2018-04-27T12:03:35.599Z,53.50
2018-04-27T12:06:04.906Z,53.50
2018-04-27T12:08:34.576Z,53.20
2018-04-27T12:11:04.134Z,53.20
2018-04-27T12:13:33.394Z,54.20
2018-04-27T12:16:02.623Z,54.70
2018-04-27T12:18:32.305Z,54.00
2018-04-27T12:21:03.051Z,52.30
2018-04-27T12:23:33.364Z,53.60
2018-04-27T12:26:02.734Z,53.60
2018-04-27T12:28:32.464Z,53.30
2018-04-27T12:31:02.187Z,53.70
2018-04-27T12:33:31.318Z,53.50
2018-04-27T12:36:00.562Z,52.90
2018-04-27T12:38:30.055Z,53.00
2018-04-27T12:40:59.366Z,53.70
2018-04-27T12:43:28.610Z,54.90
2018-04-27T12:45:58.322Z,54.30
2018-04-27T12:48:28.322Z,56.10
2018-04-27T12:50:58.534Z,56.10
2018-04-27T12:53:28.034Z,56.90
2018-04-27T12:55:57.295Z,56.70
2018-04-27T12:58:26.851Z,55.60
2018-04-27T13:00:56.146Z,55.40
2018-04-27T13:03:26.680Z,57.00
2018-04-27T13:05:56.394Z,56.10
2018-04-27T13:08:25.641Z,55.30
2018-04-27T13:10:55.276Z,55.60
2018-04-27T13:13:24.532Z,57.00
2018-04-27T13:15:54.542Z,57.60
2018-04-27T13:20:59.470Z,58.50
2018-04-27T13:23:29.078Z,58.60
2018-04-27T13:25:58.838Z,57.10
2018-04-27T13:28:28.582Z,57.20
2018-04-27T13:30:59.223Z,55.90
2018-04-27T13:33:29.275Z,55.90
2018-04-27T13:35:58.505Z,55.20
2018-04-27T13:38:28.616Z,54.70
2018-04-27T13:40:57.851Z,55.10
2018-04-27T13:43:27.790Z,54.70
2018-04-27T13:45:58.122Z,54.00
2018-04-27T13:48:28.114Z,55.50
2018-04-27T13:50:57.359Z,55.10
2018-04-27T13:53:27.035Z,53.40
2018-04-27T13:55:56.279Z,54.30
2018-04-27T13:58:25.510Z,53.10
2018-04-27T14:00:55.137Z,53.50
2018-04-27T14:03:24.381Z,53.20
2018-04-27T14:05:53.625Z,54.00
2018-04-27T14:08:23.277Z,55.00
2018-04-27T14:10:53.295Z,55.30
2018-04-27T14:13:22.634Z,55.20
2018-04-27T14:15:52.278Z,55.50
2018-04-27T14:18:21.575Z,55.20
2018-04-27T14:20:50.806Z,56.10
2018-04-27T14:23:20.475Z,56.50
2018-04-27T14:25:50.520Z,53.50
2018-04-27T14:28:21.244Z,52.10
2018-04-27T14:30:51.955Z,52.00
2018-04-27T14:33:21.717Z,52.10
2018-04-27T14:35:51.396Z,51.30
2018-04-27T14:38:21.418Z,51.60
2018-04-27T14:40:50.923Z,51.60
2018-04-27T14:43:20.398Z,52.30
2018-04-27T14:45:51.162Z,53.30
2018-04-27T14:48:20.406Z,54.80
2018-04-27T14:50:49.858Z,54.70
2018-04-27T14:53:20.290Z,54.90
2018-04-27T14:55:49.535Z,54.90
2018-04-27T14:58:18.770Z,54.60
2018-04-27T15:00:48.399Z,55.90
2018-04-27T15:03:18.544Z,54.40
2018-04-27T15:05:48.864Z,54.20
2018-04-27T15:08:19.590Z,55.20
2018-04-27T15:10:49.888Z,53.40
2018-04-27T15:13:19.142Z,53.30
2018-04-27T15:15:48.382Z,54.30
2018-04-27T15:18:18.034Z,54.40
2018-04-27T15:20:48.022Z,56.10
2018-04-27T15:23:17.490Z,55.60
2018-04-27T15:25:47.147Z,56.20
2018-04-27T15:28:16.389Z,56.50
2018-04-27T15:30:46.023Z,57.90
2018-04-27T15:33:15.993Z,58.30
2018-04-27T15:35:45.730Z,58.60
2018-04-27T15:38:15.261Z,57.40
2018-04-27T15:40:44.739Z,58.10
2018-04-27T15:43:13.990Z,59.40
2018-04-27T15:45:43.405Z,56.70
2018-04-27T15:48:12.910Z,58.30
2018-04-27T15:50:42.913Z,58.20
2018-04-27T15:53:12.322Z,58.20
2018-04-27T15:55:41.560Z,57.30
2018-04-27T15:58:10.922Z,57.90
2018-04-27T16:00:40.174Z,57.50
2018-04-27T16:03:09.521Z,57.50
2018-04-27T16:05:38.758Z,56.50
2018-04-27T16:08:08.153Z,56.70
2018-04-27T16:10:39.307Z,56.40
2018-04-27T16:16:27.206Z,56.50
2018-04-27T16:18:57.664Z,55.40
2018-04-27T16:21:26.951Z,55.10
2018-04-27T16:23:56.462Z,54.20
2018-04-27T16:26:25.696Z,55.50
2018-04-27T16:28:56.709Z,56.30
2018-04-27T16:31:25.934Z,55.00
2018-04-27T16:33:55.316Z,56.60
2018-04-27T16:36:24.688Z,55.90
2018-04-27T16:38:54.726Z,55.20
2018-04-27T16:41:23.958Z,55.20
2018-04-27T16:43:53.707Z,55.50
2018-04-27T16:46:24.274Z,57.10
2018-04-27T16:48:53.675Z,57.00
2018-04-27T16:51:23.076Z,57.50
2018-04-27T16:53:52.907Z,56.60
2018-04-27T16:56:22.295Z,55.10
2018-04-27T16:58:51.525Z,55.90
2018-04-27T17:01:20.892Z,56.00
2018-04-27T17:03:50.504Z,55.50
2018-04-27T17:06:19.902Z,55.60
2018-04-27T17:08:49.739Z,56.50
2018-04-27T17:11:19.150Z,55.90
2018-04-27T17:13:48.374Z,56.20
2018-04-27T17:16:17.723Z,57.20
2018-04-27T17:18:46.946Z,56.70
2018-04-27T17:21:16.317Z,55.90
2018-04-27T17:23:45.548Z,56.90
2018-04-27T17:26:14.925Z,57.40
2018-04-27T17:28:44.214Z,57.70
2018-04-27T17:31:13.530Z,58.60
2018-04-27T17:33:42.755Z,59.50
2018-04-27T17:36:13.050Z,59.90
2018-04-27T17:38:42.299Z,59.70
2018-04-27T17:41:11.613Z,60.00
2018-04-27T17:43:40.981Z,60.00
2018-04-27T17:46:10.360Z,60.70
2018-04-27T17:48:39.764Z,62.00
2018-04-27T17:51:09.653Z,62.20
2018-04-27T17:53:40.445Z,62.30
2018-04-27T17:56:10.542Z,62.90
2018-04-27T17:58:40.049Z,62.90
2018-04-27T18:01:09.308Z,64.20
2018-04-27T18:03:38.644Z,63.80
2018-04-27T18:06:08.322Z,64.60
2018-04-27T18:08:37.863Z,65.60
2018-04-27T18:11:07.162Z,65.40
2018-04-27T18:13:36.668Z,66.90
2018-04-27T18:16:06.105Z,68.00
2018-04-27T18:18:35.475Z,69.80
2018-04-27T18:21:04.707Z,72.40
2018-04-27T18:23:34.052Z,72.50
2018-04-27T18:26:03.285Z,74.30
2018-04-27T18:28:33.630Z,75.10
2018-04-27T18:31:02.867Z,75.00
2018-04-27T18:33:32.850Z,74.40
2018-04-27T18:36:02.422Z,78.50
2018-04-27T18:38:31.659Z,78.60
2018-04-27T18:41:01.022Z,78.80
2018-04-27T18:43:30.284Z,79.80
2018-04-27T18:46:04.307Z,80.10
2018-04-27T18:48:34.262Z,79.50
2018-04-27T18:51:03.756Z,79.80
2018-04-27T18:53:33.835Z,80.40
2018-04-27T18:56:05.846Z,80.30
2018-04-27T18:58:35.079Z,77.90
2018-04-27T19:01:04.442Z,76.80
2018-04-27T19:03:33.762Z,79.00
2018-04-27T19:06:04.081Z,82.60
2018-04-27T19:08:34.079Z,82.80
2018-04-27T19:11:03.490Z,82.70
2018-04-27T19:13:32.869Z,83.70
2018-04-27T19:16:02.293Z,83.50
2018-04-27T19:18:31.518Z,84.10
2018-04-27T19:21:00.738Z,85.10
2018-04-27T19:23:31.020Z,84.30
2018-04-27T19:26:00.250Z,83.80
2018-04-27T19:28:29.619Z,85.30
2018-04-27T19:30:58.913Z,85.90
2018-04-27T19:33:28.429Z,86.70
2018-04-27T19:35:57.818Z,88.00
2018-04-27T19:38:27.183Z,88.00
2018-04-27T19:40:56.418Z,87.90
2018-04-27T19:43:25.939Z,87.90
2018-04-27T19:45:55.162Z,87.90
2018-04-27T19:48:24.563Z,89.40
2018-04-27T19:50:54.534Z,89.00
2018-04-27T19:53:23.931Z,87.90
2018-04-27T19:55:54.090Z,88.80
2018-04-27T19:58:23.495Z,90.20
2018-04-27T20:00:52.736Z,90.00
2018-04-27T20:03:22.088Z,90.70
2018-04-27T20:05:51.322Z,90.40
2018-04-27T20:08:23.164Z,89.10
2018-04-27T20:10:53.054Z,89.60
2018-04-27T20:13:23.026Z,89.40
2018-04-27T20:15:55.962Z,90.50
2018-04-27T20:18:27.736Z,90.30
2018-04-27T20:20:59.329Z,90.70
2018-04-27T20:23:35.938Z,91.40
2018-04-27T20:26:05.888Z,91.80
2018-04-27T20:28:39.068Z,91.40
2018-04-27T20:31:08.365Z,91.40
2018-04-27T20:33:37.868Z,92.20
2018-04-27T20:36:07.222Z,91.10
2018-04-27T20:38:36.458Z,90.80
2018-04-27T20:41:09.057Z,91.00
2018-04-27T20:43:39.070Z,91.40
2018-04-27T20:46:08.466Z,91.00
2018-04-27T20:48:37.692Z,90.70
2018-04-27T20:51:09.015Z,90.80
2018-04-27T20:53:52.001Z,91.00
2018-04-27T20:56:23.189Z,91.00
2018-04-27T20:58:52.419Z,90.70
2018-04-27T21:01:21.755Z,90.60
2018-04-27T21:03:53.646Z,91.40
2018-04-27T21:06:23.145Z,91.60
2018-04-27T21:08:52.898Z,91.20
2018-04-27T21:11:23.183Z,91.50
2018-04-27T21:13:53.917Z,92.00
2018-04-27T21:16:23.325Z,92.00
2018-04-27T21:18:53.239Z,92.10
2018-04-27T21:21:22.561Z,92.60
2018-04-27T21:23:52.549Z,92.70
2018-04-27T21:26:27.078Z,92.60
2018-04-27T21:28:57.230Z,92.80
2018-04-27T21:31:26.705Z,93.10
2018-04-27T21:33:56.754Z,93.00
2018-04-27T21:36:28.816Z,93.40
2018-04-27T21:39:21.323Z,93.90
2018-04-27T21:41:55.186Z,93.80
2018-04-27T21:44:34.857Z,93.90
2018-04-27T21:50:07.863Z,94.60
2018-04-27T21:52:53.915Z,94.80
2018-04-27T21:55:24.421Z,94.40
2018-04-27T21:58:06.012Z,94.40
2018-04-27T22:00:35.241Z,94.70
2018-04-27T22:03:24.477Z,94.80
2018-04-27T22:06:24.175Z,94.90
2018-04-27T22:08:57.933Z,95.00
2018-04-27T22:11:35.644Z,95.00
2018-04-27T22:14:05.101Z,95.10
2018-04-27T22:16:40.408Z,95.30
2018-04-27T22:19:19.886Z,95.50
2018-04-27T22:21:50.892Z,95.90
2018-04-27T22:24:26.863Z,96.10
2018-04-27T22:27:11.212Z,96.20
2018-04-27T22:32:41.374Z,97.00
2018-04-27T22:35:13.915Z,96.90
2018-04-27T22:37:44.769Z,97.10
2018-04-27T22:40:19.003Z,97.40
2018-04-27T22:42:56.446Z,97.60
2018-04-27T22:45:33.442Z,97.60
2018-04-27T22:51:32.142Z,98.20
2018-04-27T22:54:03.730Z,98.20
2018-04-27T22:59:29.950Z,98.10
2018-04-27T23:02:18.745Z,98.20
2018-04-27T23:04:59.633Z,98.20
2018-04-27T23:07:35.330Z,98.50
2018-04-27T23:10:04.565Z,99.00
2018-04-27T23:12:36.530Z,98.90
2018-04-27T23:15:09.036Z,99.20
2018-04-27T23:17:39.331Z,99.70
2018-04-27T23:20:21.245Z,99.70
2018-04-27T23:23:08.862Z,99.90
2018-04-27T23:25:40.086Z,99.80
2018-04-27T23:28:10.402Z,99.90
2018-04-27T23:30:41.674Z,99.90
2018-04-27T23:33:14.553Z,99.90
2018-04-27T23:35:47.414Z,99.90
2018-04-27T23:38:16.935Z,99.90
2018-04-27T23:40:49.178Z,99.90
2018-04-27T23:43:19.275Z,99.80
2018-04-27T23:45:48.473Z,99.20
2018-04-27T23:48:17.846Z,99.20
2018-04-27T23:50:50.385Z,99.10
2018-04-27T23:53:21.163Z,99.20
2018-04-27T23:55:50.396Z,99.30
2018-04-27T23:58:23.469Z,99.20
